createdAt,value
2022-09-10T00:16:52.868Z,5.25
2022-09-10T00:27:20.894Z,4.82
2022-09-10T00:37:46.624Z,6.75
2022-09-10T00:48:12.734Z,7.33
2022-09-10T00:58:35.480Z,3.55
2022-09-10T01:08:56.529Z,7.85
2022-09-10T01:19:32.785Z,9.15
2022-09-10T01:30:00.431Z,5.85
2022-09-10T01:40:28.841Z,4.82
2022-09-10T01:51:04.338Z,5.25
2022-09-10T02:01:28.994Z,7.80
2022-09-10T02:11:52.709Z,7.50
2022-09-10T02:22:31.414Z,5.60
2022-09-10T02:32:54.462Z,7.40
2022-09-10T02:43:16.166Z,6.45
2022-09-10T02:53:38.727Z,4.70
2022-09-10T03:04:01.914Z,10.50
2022-09-10T03:14:26.189Z,8.95
2022-09-10T03:24:48.124Z,6.53
2022-09-10T03:35:11.254Z,8.18
2022-09-10T03:45:33.201Z,9.93
2022-09-10T03:55:56.828Z,6.07
2022-09-10T04:06:18.679Z,10.18
2022-09-10T04:16:41.705Z,6.20
2022-09-10T04:27:06.795Z,5.97
2022-09-10T04:37:30.198Z,8.32
2022-09-10T04:47:52.525Z,8.02
2022-09-10T04:58:15.049Z,9.98
2022-09-10T05:08:38.551Z,4.95
2022-09-10T05:19:01.155Z,6.13
2022-09-10T05:29:25.958Z,5.68
2022-09-10T05:39:48.563Z,5.10
2022-09-10T05:50:11.212Z,5.10
2022-09-10T06:00:34.858Z,4.63
2022-09-10T06:10:57.940Z,7.90
2022-09-10T06:21:28.161Z,12.57
2022-09-10T06:31:51.683Z,5.72
2022-09-10T06:42:14.747Z,6.70
2022-09-10T06:52:49.807Z,4.80
2022-09-10T07:03:17.141Z,2.80
2022-09-10T07:13:38.711Z,5.97
2022-09-10T07:24:02.162Z,5.00
2022-09-10T07:34:24.072Z,3.65
2022-09-10T07:44:46.869Z,5.75
2022-09-10T07:55:09.100Z,5.18
2022-09-10T08:05:32.170Z,4.22
2022-09-10T08:15:57.838Z,4.53
2022-09-10T08:26:23.578Z,2.50
2022-09-10T08:36:46.561Z,3.38
2022-09-10T08:47:17.843Z,4.10
2022-09-10T08:57:41.412Z,3.97
2022-09-10T09:08:06.227Z,2.53
2022-09-10T09:18:36.691Z,3.60
2022-09-10T09:29:02.566Z,3.65
2022-09-10T09:39:26.474Z,2.83
2022-09-10T09:49:49.615Z,3.90
2022-09-10T10:00:32.928Z,7.55
2022-09-10T10:10:55.707Z,3.23
2022-09-10T10:21:18.400Z,5.88
2022-09-10T10:31:42.459Z,4.93
2022-09-10T10:42:06.538Z,6.18
2022-09-10T10:52:35.778Z,5.45
2022-09-10T11:03:00.144Z,3.25
2022-09-10T11:13:23.982Z,7.50
2022-09-10T11:34:20.715Z,5.05
2022-09-10T11:44:54.081Z,4.13
2022-09-10T11:55:17.603Z,6.07
2022-09-10T12:16:03.682Z,4.88
2022-09-10T12:26:25.583Z,2.47
2022-09-10T12:37:14.591Z,3.83
2022-09-10T12:47:50.339Z,2.13
2022-09-10T12:58:18.222Z,2.30
2022-09-10T13:08:42.385Z,2.85
2022-09-10T13:19:19.452Z,3.92
2022-09-10T13:29:44.481Z,2.70
2022-09-10T13:40:35.945Z,2.80
2022-09-10T13:51:06.571Z,5.15
2022-09-10T14:01:42.775Z,3.72
2022-09-10T14:12:08.355Z,2.65
2022-09-10T14:22:31.880Z,3.03
2022-09-10T14:32:54.813Z,4.60
2022-09-10T14:43:16.391Z,5.28
2022-09-10T14:53:38.801Z,7.32
2022-09-10T15:04:00.500Z,9.00
2022-09-10T15:14:23.750Z,5.63
2022-09-10T15:25:05.994Z,3.85
2022-09-10T15:35:28.758Z,5.90
2022-09-10T15:46:00.545Z,6.10
2022-09-10T15:56:26.015Z,4.97
2022-09-10T16:06:51.567Z,8.80
2022-09-10T16:17:17.341Z,5.32
2022-09-10T16:27:42.600Z,8.50
2022-09-10T16:38:05.856Z,4.88
2022-09-10T16:48:27.168Z,7.18
2022-09-10T16:58:50.052Z,10.80
2022-09-10T17:09:11.284Z,4.60
2022-09-10T17:19:33.949Z,4.95
2022-09-10T17:29:55.436Z,9.68
2022-09-10T17:40:17.835Z,5.88
2022-09-10T17:50:46.142Z,7.60
2022-09-10T18:01:09.942Z,8.90
2022-09-10T18:11:32.359Z,8.68
2022-09-10T18:21:54.902Z,10.85
2022-09-10T18:32:16.192Z,9.00
2022-09-10T18:42:41.623Z,13.00
2022-09-10T18:53:04.743Z,15.82
2022-09-10T19:03:27.103Z,10.45
2022-09-10T19:13:49.318Z,9.75
2022-09-10T19:24:12.553Z,9.70
2022-09-10T19:34:33.714Z,9.27
2022-09-10T19:44:56.543Z,9.73
2022-09-10T19:55:18.216Z,11.65
2022-09-10T20:05:42.604Z,10.50
2022-09-10T20:16:04.280Z,11.13
2022-09-10T20:26:27.439Z,9.57
2022-09-10T20:36:51.075Z,17.00
2022-09-10T20:47:13.765Z,10.02
2022-09-10T20:57:35.211Z,14.27
2022-09-10T21:07:59.077Z,17.55
2022-09-10T21:18:20.327Z,25.02
2022-09-10T21:28:44.714Z,26.63
2022-09-10T21:39:06.887Z,27.13
2022-09-10T21:49:29.361Z,24.30
2022-09-10T21:59:50.549Z,29.30
2022-09-10T22:10:13.793Z,33.63
2022-09-10T22:20:34.998Z,22.63
2022-09-10T22:30:57.514Z,22.25
2022-09-10T22:41:18.979Z,25.33
2022-09-10T22:51:41.840Z,23.75
2022-09-10T23:02:03.440Z,22.85
2022-09-10T23:12:26.250Z,26.30
2022-09-10T23:22:48.894Z,20.95
2022-09-10T23:33:11.729Z,26.30
2022-09-10T23:43:32.746Z,23.23
2022-09-10T23:53:56.447Z,22.00
